createdAt,value
2023-02-25T00:00:34.229Z,3.21
2023-02-25T00:03:01.567Z,3.22
2023-02-25T00:05:31.786Z,3.18
2023-02-25T00:07:58.693Z,3.16
2023-02-25T00:10:25.074Z,2.91
2023-02-25T00:12:51.457Z,3.36
2023-02-25T00:15:17.900Z,3.22
2023-02-25T00:17:44.319Z,3.11
2023-02-25T00:20:13.201Z,3.32
2023-02-25T00:22:39.903Z,3.27
2023-02-25T00:25:06.969Z,3.16
2023-02-25T00:27:33.379Z,3.46
2023-02-25T00:30:00.513Z,3.34
2023-02-25T00:32:27.232Z,3.30
2023-02-25T00:34:53.688Z,3.24
2023-02-25T00:37:20.234Z,3.30
2023-02-25T00:39:46.704Z,3.04
2023-02-25T00:42:17.300Z,3.31
2023-02-25T00:44:45.220Z,3.33
2023-02-25T00:47:11.903Z,3.36
2023-02-25T00:49:38.291Z,3.31
2023-02-25T00:52:04.656Z,3.32
2023-02-25T00:54:31.038Z,3.40
2023-02-25T00:56:57.468Z,3.49
2023-02-25T00:59:23.857Z,3.35
2023-02-25T01:01:50.446Z,3.33
2023-02-25T01:04:16.870Z,3.24
2023-02-25T01:06:43.832Z,3.27
2023-02-25T01:09:16.594Z,3.43
2023-02-25T01:11:45.843Z,3.37
2023-02-25T01:14:14.878Z,3.47
2023-02-25T01:16:41.685Z,3.49
2023-02-25T01:19:11.379Z,3.57
2023-02-25T01:21:40.814Z,3.28
2023-02-25T01:24:13.715Z,3.29
2023-02-25T01:26:42.148Z,3.34
2023-02-25T01:29:09.868Z,3.53
2023-02-25T01:31:38.137Z,3.56
2023-02-25T01:34:06.718Z,3.36
2023-02-25T01:36:33.609Z,3.54
2023-02-25T01:39:01.151Z,3.38
2023-02-25T01:41:29.532Z,3.39
2023-02-25T01:44:12.057Z,3.39
2023-02-25T01:46:38.992Z,3.50
2023-02-25T01:49:18.936Z,3.52
2023-02-25T01:51:48.644Z,3.49
2023-02-25T01:54:15.770Z,3.47
2023-02-25T01:56:48.164Z,3.42
2023-02-25T01:59:15.465Z,3.66
2023-02-25T02:01:42.528Z,3.41
2023-02-25T02:04:10.843Z,3.42
2023-02-25T02:06:42.656Z,3.49
2023-02-25T02:09:13.319Z,3.28
2023-02-25T02:11:39.857Z,3.39
2023-02-25T02:14:07.722Z,3.36
2023-02-25T02:16:44.463Z,3.43
2023-02-25T02:19:29.582Z,3.30
2023-02-25T02:22:02.986Z,3.26
2023-02-25T02:24:47.623Z,3.32
2023-02-25T02:27:17.074Z,3.21
2023-02-25T02:30:08.102Z,3.30
2023-02-25T02:32:57.474Z,3.21
2023-02-25T02:35:42.603Z,3.31
2023-02-25T02:38:31.970Z,3.21
2023-02-25T02:41:06.838Z,3.30
2023-02-25T02:43:48.495Z,3.42
2023-02-25T02:46:25.652Z,3.48
2023-02-25T02:48:56.613Z,3.29
2023-02-25T02:51:26.862Z,3.36
2023-02-25T02:53:56.222Z,3.44
2023-02-25T02:56:25.134Z,3.47
2023-02-25T02:58:57.699Z,3.54
2023-02-25T03:01:32.956Z,3.44
2023-02-25T03:04:02.927Z,3.41
2023-02-25T03:06:33.100Z,3.32
2023-02-25T03:09:06.414Z,3.37
2023-02-25T03:11:33.549Z,3.43
2023-02-25T03:13:59.948Z,3.47
2023-02-25T03:16:31.193Z,3.50
2023-02-25T03:19:09.085Z,3.54
2023-02-25T03:21:39.660Z,3.37
2023-02-25T03:24:08.736Z,3.37
2023-02-25T03:26:35.793Z,3.36
2023-02-25T03:29:02.628Z,3.44
2023-02-25T03:31:36.726Z,3.41
2023-02-25T03:34:07.603Z,3.53
2023-02-25T03:36:37.681Z,3.52
2023-02-25T03:39:09.671Z,3.30
2023-02-25T03:41:38.736Z,3.31
2023-02-25T03:44:09.890Z,3.37
2023-02-25T03:46:37.109Z,3.45
2023-02-25T03:49:04.253Z,3.58
2023-02-25T03:51:34.536Z,3.63
2023-02-25T03:54:00.971Z,3.38
2023-02-25T03:56:27.858Z,3.39
2023-02-25T03:58:54.275Z,3.45
2023-02-25T04:01:27.930Z,3.54
2023-02-25T04:03:54.327Z,3.47
2023-02-25T04:06:23.190Z,3.65
2023-02-25T04:08:50.083Z,3.68
2023-02-25T04:11:16.691Z,3.56
2023-02-25T04:13:43.107Z,3.61
2023-02-25T04:16:09.531Z,3.73
2023-02-25T04:18:35.954Z,3.67
2023-02-25T04:21:02.328Z,3.65
2023-02-25T04:23:28.744Z,3.68
2023-02-25T04:25:55.098Z,3.80
2023-02-25T04:28:21.501Z,3.58
2023-02-25T04:30:48.206Z,3.70
2023-02-25T04:33:14.653Z,3.75
2023-02-25T04:35:41.097Z,3.60
2023-02-25T04:38:09.220Z,3.60
2023-02-25T04:40:36.359Z,3.63
2023-02-25T04:43:03.082Z,3.45
2023-02-25T04:45:29.454Z,3.51
2023-02-25T04:47:57.706Z,3.59
2023-02-25T04:50:25.145Z,3.54
2023-02-25T04:52:52.003Z,3.39
2023-02-25T04:55:18.474Z,3.44
2023-02-25T04:57:44.900Z,3.37
2023-02-25T05:00:24.096Z,3.34
2023-02-25T05:02:50.729Z,3.34
2023-02-25T05:05:17.558Z,3.26
2023-02-25T05:07:44.112Z,3.37
2023-02-25T05:10:12.717Z,3.30
2023-02-25T05:12:39.094Z,3.45
2023-02-25T05:15:08.276Z,3.38
2023-02-25T05:17:35.925Z,3.40
2023-02-25T05:20:02.434Z,3.39
2023-02-25T05:22:28.823Z,3.40
2023-02-25T05:24:55.196Z,3.27
2023-02-25T05:27:21.573Z,3.27
2023-02-25T05:29:48.096Z,3.41
2023-02-25T05:32:15.659Z,3.61
2023-02-25T05:34:42.094Z,3.34
2023-02-25T05:37:08.483Z,3.31
2023-02-25T05:39:34.873Z,3.23
2023-02-25T05:42:01.323Z,3.33
2023-02-25T05:44:27.709Z,3.32
2023-02-25T05:46:54.110Z,3.21
2023-02-25T05:49:20.776Z,3.35
2023-02-25T05:51:49.102Z,3.26
2023-02-25T05:54:15.492Z,3.11
2023-02-25T05:56:41.876Z,3.13
2023-02-25T05:59:08.264Z,3.08
2023-02-25T06:01:34.653Z,3.09
2023-02-25T06:04:01.175Z,3.05
2023-02-25T06:06:29.343Z,3.14
2023-02-25T06:08:55.823Z,3.05
2023-02-25T06:11:27.469Z,3.10
2023-02-25T06:13:54.767Z,3.04
2023-02-25T06:16:21.755Z,3.10
2023-02-25T06:18:49.497Z,2.95
2023-02-25T06:21:15.942Z,3.06
2023-02-25T06:23:44.074Z,3.17
2023-02-25T06:26:12.570Z,3.24
2023-02-25T06:28:39.026Z,3.29
2023-02-25T06:31:10.177Z,3.30
2023-02-25T06:33:37.401Z,3.45
2023-02-25T06:36:05.047Z,3.32
2023-02-25T06:38:32.556Z,3.41
2023-02-25T06:40:58.950Z,3.57
2023-02-25T06:43:25.371Z,3.57
2023-02-25T06:45:51.867Z,3.52
2023-02-25T06:48:18.252Z,3.33
2023-02-25T06:50:44.641Z,3.49
2023-02-25T06:53:11.032Z,3.60
2023-02-25T06:55:40.327Z,3.46
2023-02-25T06:58:06.892Z,3.44
2023-02-25T07:00:33.309Z,3.49
2023-02-25T07:03:02.840Z,3.48
2023-02-25T07:05:29.350Z,3.46
2023-02-25T07:07:55.719Z,3.44
2023-02-25T07:10:22.115Z,3.33
2023-02-25T07:12:48.511Z,3.29
2023-02-25T07:15:14.892Z,3.30
2023-02-25T07:17:41.265Z,3.39
2023-02-25T07:20:08.238Z,3.36
2023-02-25T07:22:34.624Z,3.47
2023-02-25T07:25:01.015Z,3.48
2023-02-25T07:27:27.396Z,3.52
2023-02-25T07:29:54.864Z,3.46
2023-02-25T07:32:22.669Z,3.60
2023-02-25T07:34:49.119Z,3.72
2023-02-25T07:37:15.503Z,3.87
2023-02-25T07:39:41.872Z,3.82
2023-02-25T07:42:08.248Z,3.99
2023-02-25T07:44:35.913Z,3.93
2023-02-25T07:47:02.363Z,3.88
2023-02-25T07:49:28.739Z,3.79
2023-02-25T07:51:55.296Z,3.81
2023-02-25T07:54:22.760Z,3.82
2023-02-25T07:56:52.044Z,3.76
2023-02-25T07:59:19.031Z,3.85
2023-02-25T08:01:45.568Z,3.76
2023-02-25T08:04:12.012Z,3.92
2023-02-25T08:06:40.917Z,4.03
2023-02-25T08:09:08.364Z,4.03
2023-02-25T08:11:34.831Z,4.07
2023-02-25T08:14:01.703Z,4.19
2023-02-25T08:16:28.201Z,3.92
2023-02-25T08:18:54.755Z,3.88
2023-02-25T08:21:23.411Z,3.98
2023-02-25T08:23:51.880Z,4.12
2023-02-25T08:26:19.040Z,4.07
2023-02-25T08:28:46.141Z,4.07
2023-02-25T08:31:12.898Z,4.06
2023-02-25T08:33:49.561Z,4.25
2023-02-25T08:36:24.989Z,4.31
2023-02-25T08:38:52.248Z,4.51
2023-02-25T08:41:21.006Z,4.35
2023-02-25T08:43:54.180Z,4.56
2023-02-25T08:46:25.211Z,4.78
2023-02-25T08:48:52.721Z,4.77
2023-02-25T08:51:19.698Z,4.38
2023-02-25T08:53:46.122Z,4.61
2023-02-25T08:56:14.476Z,4.57
2023-02-25T08:58:41.305Z,4.39
2023-02-25T09:01:12.851Z,4.34
2023-02-25T09:03:52.499Z,4.34
2023-02-25T09:06:27.755Z,3.76
2023-02-25T09:08:55.253Z,3.48
2023-02-25T09:11:23.407Z,3.49
2023-02-25T09:13:50.006Z,3.35
2023-02-25T09:16:17.289Z,3.50
2023-02-25T09:18:45.246Z,3.65
2023-02-25T09:21:12.858Z,3.87
2023-02-25T09:23:39.498Z,3.85
2023-02-25T09:26:09.713Z,3.86
2023-02-25T09:28:36.537Z,4.27
2023-02-25T09:31:03.306Z,4.49
2023-02-25T09:33:31.822Z,4.66
2023-02-25T09:36:24.515Z,4.70
2023-02-25T09:38:51.765Z,4.67
2023-02-25T09:41:42.409Z,4.52
2023-02-25T09:44:15.919Z,4.35
2023-02-25T09:46:49.512Z,4.50
2023-02-25T09:49:43.729Z,4.53
2023-02-25T09:52:19.099Z,4.54
2023-02-25T09:54:47.209Z,4.72
2023-02-25T09:57:19.066Z,4.85
2023-02-25T09:59:46.929Z,4.81
2023-02-25T10:02:25.732Z,4.25
2023-02-25T10:05:21.512Z,2.02
2023-02-25T10:08:04.039Z,1.56
2023-02-25T10:10:38.696Z,1.81
2023-02-25T10:13:36.067Z,1.99
2023-02-25T10:16:09.825Z,2.26
2023-02-25T10:18:42.772Z,2.17
2023-02-25T10:21:36.888Z,2.35
2023-02-25T10:24:34.718Z,2.49
2023-02-25T10:27:17.748Z,2.70
2023-02-25T10:29:53.072Z,2.78
2023-02-25T10:32:31.806Z,2.66
2023-02-25T10:35:00.563Z,3.00
2023-02-25T10:37:33.022Z,3.44
2023-02-25T10:40:01.916Z,3.59
2023-02-25T10:42:29.418Z,3.72
2023-02-25T10:45:01.760Z,3.85
2023-02-25T10:47:33.708Z,4.24
2023-02-25T10:50:12.195Z,4.46
2023-02-25T10:52:56.750Z,4.70
2023-02-25T10:55:26.155Z,4.58
2023-02-25T10:57:52.684Z,4.97
2023-02-25T11:00:30.282Z,4.63
2023-02-25T11:03:01.231Z,4.64
2023-02-25T11:05:30.852Z,4.66
2023-02-25T11:07:57.439Z,4.63
2023-02-25T11:10:25.045Z,5.08
2023-02-25T11:12:53.969Z,5.04
2023-02-25T11:15:43.542Z,4.79
2023-02-25T11:18:21.044Z,4.51
2023-02-25T11:20:56.123Z,4.16
2023-02-25T11:23:43.111Z,4.06
2023-02-25T11:26:15.198Z,4.17
2023-02-25T11:28:48.424Z,4.71
2023-02-25T11:31:24.042Z,4.44
2023-02-25T11:34:03.584Z,4.30
2023-02-25T11:36:33.265Z,4.31
2023-02-25T11:39:18.448Z,5.11
2023-02-25T11:41:47.014Z,5.81
2023-02-25T11:44:21.586Z,5.41
2023-02-25T11:47:16.585Z,4.81
2023-02-25T11:49:51.296Z,4.43
2023-02-25T11:52:43.745Z,4.54
2023-02-25T11:55:30.209Z,5.08
2023-02-25T11:58:28.933Z,4.96
2023-02-25T12:01:02.922Z,4.59
2023-02-25T12:03:56.406Z,4.69
2023-02-25T12:06:45.417Z,4.42
2023-02-25T12:09:39.896Z,4.78
2023-02-25T12:12:19.514Z,5.05
2023-02-25T12:15:10.299Z,4.45
2023-02-25T12:17:47.809Z,4.39
2023-02-25T12:20:29.406Z,4.19
2023-02-25T12:23:28.226Z,4.22
2023-02-25T12:26:04.028Z,4.27
2023-02-25T12:28:45.332Z,4.18
2023-02-25T12:31:30.296Z,4.25
2023-02-25T12:34:03.622Z,4.42
2023-02-25T12:36:47.885Z,4.39
2023-02-25T12:39:18.885Z,4.43
2023-02-25T12:42:09.553Z,4.62
2023-02-25T12:45:01.387Z,4.87
2023-02-25T12:47:46.346Z,4.57
2023-02-25T12:50:57.368Z,4.25
2023-02-25T12:53:45.204Z,4.30
2023-02-25T12:56:27.785Z,4.56
2023-02-25T12:59:22.330Z,4.60
2023-02-25T13:01:53.439Z,5.09
2023-02-25T13:04:32.058Z,5.51
2023-02-25T13:07:16.947Z,5.18
2023-02-25T13:10:11.097Z,5.26
2023-02-25T13:12:58.051Z,4.64
2023-02-25T13:16:07.365Z,5.04
2023-02-25T13:18:50.733Z,5.49
2023-02-25T13:21:27.393Z,5.22
2023-02-25T13:24:17.936Z,5.31
2023-02-25T13:27:05.517Z,5.21
2023-02-25T13:29:41.358Z,4.97
2023-02-25T13:32:27.176Z,4.89
2023-02-25T13:35:15.523Z,5.22
2023-02-25T13:38:03.458Z,5.27
2023-02-25T13:40:57.299Z,5.08
2023-02-25T13:44:01.856Z,4.85
2023-02-25T13:46:56.029Z,5.13
2023-02-25T13:49:47.032Z,5.30
2023-02-25T13:52:21.533Z,5.41
2023-02-25T13:55:28.405Z,5.02
2023-02-25T13:58:01.822Z,5.62
2023-02-25T14:00:46.505Z,6.06
2023-02-25T14:03:39.424Z,6.84
2023-02-25T14:06:18.006Z,8.22
2023-02-25T14:09:15.418Z,8.29
2023-02-25T14:12:22.391Z,6.52
2023-02-25T14:15:22.895Z,5.87
2023-02-25T14:18:07.428Z,6.41
2023-02-25T14:20:38.954Z,7.03
2023-02-25T14:23:28.467Z,7.40
2023-02-25T14:26:38.424Z,8.30
2023-02-25T14:29:18.122Z,6.80
2023-02-25T14:32:06.493Z,7.00
2023-02-25T14:34:50.719Z,7.60
2023-02-25T14:37:28.635Z,8.35
2023-02-25T14:40:19.497Z,8.62
2023-02-25T14:43:15.013Z,7.86
2023-02-25T14:45:46.125Z,6.92
2023-02-25T14:48:25.164Z,6.84
2023-02-25T14:51:07.661Z,7.29
2023-02-25T14:53:55.885Z,8.06
2023-02-25T14:56:56.901Z,7.37
2023-02-25T14:59:47.107Z,8.31
2023-02-25T15:02:34.531Z,8.32
2023-02-25T15:05:23.046Z,8.35
2023-02-25T15:07:55.742Z,8.16
2023-02-25T15:10:47.275Z,8.17
2023-02-25T15:13:35.225Z,7.22
2023-02-25T15:16:41.162Z,7.45
2023-02-25T15:20:02.394Z,6.40
2023-02-25T15:22:30.189Z,5.37
2023-02-25T15:25:21.313Z,5.05
2023-02-25T15:27:51.248Z,4.96
2023-02-25T15:30:23.259Z,4.93
2023-02-25T15:33:01.903Z,4.99
2023-02-25T15:35:34.213Z,5.13
2023-02-25T15:38:00.542Z,5.30
2023-02-25T15:40:33.042Z,5.65
2023-02-25T15:43:35.985Z,5.08
2023-02-25T15:46:08.395Z,5.32
2023-02-25T15:48:37.825Z,5.04
2023-02-25T15:51:08.494Z,4.88
2023-02-25T15:53:35.834Z,4.77
2023-02-25T15:56:05.425Z,4.99
2023-02-25T15:58:31.756Z,4.87
2023-02-25T16:01:07.263Z,4.98
2023-02-25T16:03:36.464Z,5.03
2023-02-25T16:06:13.606Z,4.53
2023-02-25T16:09:07.956Z,4.55
2023-02-25T16:11:53.477Z,4.33
2023-02-25T16:14:28.967Z,4.32
2023-02-25T16:17:15.945Z,4.28
2023-02-25T16:19:43.247Z,4.22
2023-02-25T16:22:21.742Z,4.17
2023-02-25T16:24:56.411Z,3.95
2023-02-25T16:27:41.285Z,3.89
2023-02-25T16:30:22.634Z,3.96
2023-02-25T16:33:14.456Z,3.69
2023-02-25T16:35:45.065Z,3.77
2023-02-25T16:38:18.769Z,3.88
2023-02-25T16:40:45.656Z,3.68
2023-02-25T16:43:15.255Z,3.79
2023-02-25T16:45:53.852Z,3.47
2023-02-25T16:48:26.889Z,3.48
2023-02-25T16:50:53.744Z,3.51
2023-02-25T16:53:23.043Z,3.50
2023-02-25T16:55:50.316Z,3.45
2023-02-25T16:58:21.462Z,3.53
2023-02-25T17:00:59.270Z,3.42
2023-02-25T17:03:28.475Z,3.46
2023-02-25T17:06:14.709Z,3.25
2023-02-25T17:08:45.770Z,3.02
2023-02-25T17:11:16.398Z,3.13
2023-02-25T17:13:43.303Z,3.17
2023-02-25T17:16:26.333Z,3.09
2023-02-25T17:18:56.123Z,2.98
2023-02-25T17:21:43.954Z,2.98
2023-02-25T17:24:15.552Z,2.98
2023-02-25T17:26:43.733Z,2.98
2023-02-25T17:29:13.108Z,2.81
2023-02-25T17:31:45.509Z,2.80
2023-02-25T17:34:14.563Z,2.85
2023-02-25T17:36:41.193Z,2.91
2023-02-25T17:39:20.138Z,2.72
2023-02-25T17:41:47.551Z,2.70
2023-02-25T17:44:47.841Z,2.61
2023-02-25T17:47:21.054Z,2.52
2023-02-25T17:49:47.659Z,2.46
2023-02-25T17:52:23.195Z,2.56
2023-02-25T17:55:01.588Z,2.44
2023-02-25T17:57:29.786Z,2.30
2023-02-25T18:00:00.426Z,2.39
2023-02-25T18:02:32.496Z,2.32
2023-02-25T18:05:13.516Z,2.26
2023-02-25T18:07:42.497Z,2.17
2023-02-25T18:10:27.291Z,1.99
2023-02-25T18:12:58.578Z,2.05
2023-02-25T18:15:27.790Z,2.12
2023-02-25T18:17:56.415Z,2.08
2023-02-25T18:20:27.331Z,2.08
2023-02-25T18:22:55.168Z,1.99
2023-02-25T18:25:38.205Z,1.95
2023-02-25T18:28:06.486Z,2.06
2023-02-25T18:30:33.185Z,1.85
2023-02-25T18:32:59.958Z,1.83
2023-02-25T18:35:27.641Z,1.90
2023-02-25T18:37:54.745Z,1.98
2023-02-25T18:40:38.140Z,1.89
2023-02-25T18:43:05.230Z,1.79
2023-02-25T18:45:33.125Z,1.57
2023-02-25T18:48:00.723Z,1.49
2023-02-25T18:50:29.871Z,1.59
2023-02-25T18:52:56.640Z,1.58
2023-02-25T18:55:26.905Z,1.62
2023-02-25T18:57:53.863Z,1.66
2023-02-25T19:00:21.868Z,1.59
2023-02-25T19:02:49.241Z,1.60
2023-02-25T19:05:16.969Z,1.61
2023-02-25T19:07:43.746Z,1.61
2023-02-25T19:10:14.274Z,1.52
2023-02-25T19:12:41.092Z,1.45
2023-02-25T19:15:14.439Z,1.66
2023-02-25T19:17:40.868Z,1.39
2023-02-25T19:20:08.877Z,1.50
2023-02-25T19:22:43.853Z,1.46
2023-02-25T19:25:34.546Z,1.54
2023-02-25T19:28:00.985Z,1.81
2023-02-25T19:30:30.930Z,1.64
2023-02-25T19:33:03.496Z,1.90
2023-02-25T19:35:33.271Z,1.66
2023-02-25T19:37:59.838Z,1.76
2023-02-25T19:40:26.539Z,1.50
2023-02-25T19:42:53.119Z,1.71
2023-02-25T19:45:21.490Z,1.59
2023-02-25T19:47:48.726Z,1.44
2023-02-25T19:50:17.017Z,1.58
2023-02-25T19:52:44.012Z,1.82
2023-02-25T19:55:12.138Z,1.72
2023-02-25T19:57:38.836Z,1.72
2023-02-25T20:00:08.938Z,1.80
2023-02-25T20:02:35.433Z,1.70
2023-02-25T20:05:01.873Z,1.61
2023-02-25T20:07:28.531Z,1.77
2023-02-25T20:09:54.899Z,1.76
2023-02-25T20:12:21.328Z,1.63
2023-02-25T20:14:47.703Z,1.61
2023-02-25T20:17:14.109Z,1.33
2023-02-25T20:19:40.634Z,1.43
2023-02-25T20:22:07.227Z,1.48
2023-02-25T20:24:34.265Z,1.52
2023-02-25T20:27:00.908Z,1.51
2023-02-25T20:29:27.462Z,1.47
2023-02-25T20:31:56.062Z,1.17
2023-02-25T20:34:26.133Z,1.37
2023-02-25T20:36:59.842Z,1.44
2023-02-25T20:39:38.280Z,1.64
2023-02-25T20:42:06.521Z,1.63
2023-02-25T20:44:32.976Z,1.59
2023-02-25T20:46:59.485Z,1.58
2023-02-25T20:49:25.938Z,1.49
2023-02-25T20:51:52.581Z,1.14
2023-02-25T20:54:19.762Z,0.95
2023-02-25T20:56:47.043Z,1.09
2023-02-25T20:59:14.423Z,1.01
2023-02-25T21:01:41.076Z,1.10
2023-02-25T21:04:08.306Z,1.01
2023-02-25T21:06:35.146Z,0.93
2023-02-25T21:09:01.540Z,0.84
2023-02-25T21:11:27.935Z,0.76
2023-02-25T21:13:54.683Z,0.98
2023-02-25T21:16:23.027Z,0.96
2023-02-25T21:18:49.778Z,0.69
2023-02-25T21:21:18.155Z,0.82
2023-02-25T21:23:44.524Z,0.80
2023-02-25T21:26:11.863Z,0.73
2023-02-25T21:28:38.709Z,0.77
2023-02-25T21:31:07.557Z,0.92
2023-02-25T21:33:34.480Z,1.03
2023-02-25T21:36:01.305Z,1.07
2023-02-25T21:38:28.334Z,0.66
2023-02-25T21:40:55.896Z,0.76
2023-02-25T21:43:23.930Z,0.78
2023-02-25T21:45:53.792Z,0.76
2023-02-25T21:48:20.673Z,0.82
2023-02-25T21:50:47.386Z,0.72
2023-02-25T21:53:13.771Z,0.66
2023-02-25T21:55:40.250Z,0.62
2023-02-25T21:58:06.631Z,0.56
2023-02-25T22:00:33.022Z,0.58
2023-02-25T22:02:59.390Z,0.55
2023-02-25T22:05:25.795Z,0.61
2023-02-25T22:07:52.173Z,0.53
2023-02-25T22:10:19.258Z,0.41
2023-02-25T22:12:45.670Z,0.52
2023-02-25T22:15:12.333Z,0.48
2023-02-25T22:17:38.740Z,0.40
2023-02-25T22:20:06.000Z,0.24
2023-02-25T22:22:32.615Z,0.26
2023-02-25T22:24:59.107Z,0.42
2023-02-25T22:27:25.519Z,0.38
2023-02-25T22:29:51.893Z,0.53
2023-02-25T22:32:18.311Z,0.56
2023-02-25T22:34:44.839Z,0.43
2023-02-25T22:37:11.216Z,0.26
2023-02-25T22:39:37.582Z,0.03
2023-02-25T22:42:03.988Z,0.08
2023-02-25T22:44:30.416Z,-0.12
2023-02-25T22:46:57.016Z,-0.09
2023-02-25T22:49:23.416Z,-0.12
2023-02-25T22:51:50.398Z,-0.09
2023-02-25T22:54:18.893Z,-0.12
2023-02-25T22:56:46.210Z,-0.06
2023-02-25T22:59:13.105Z,-0.10
2023-02-25T23:01:40.095Z,-0.03
2023-02-25T23:04:07.973Z,0.03
2023-02-25T23:06:43.324Z,-0.10
2023-02-25T23:09:11.794Z,-0.39
2023-02-25T23:11:40.314Z,-0.27
2023-02-25T23:14:06.709Z,-0.10
2023-02-25T23:16:35.097Z,-0.13
2023-02-25T23:19:03.677Z,-0.17
2023-02-25T23:21:30.972Z,-0.18
2023-02-25T23:23:58.915Z,-0.26
2023-02-25T23:26:28.478Z,-0.24
2023-02-25T23:28:56.436Z,-0.07
2023-02-25T23:31:28.004Z,-0.31
2023-02-25T23:33:55.974Z,-0.35
2023-02-25T23:36:22.655Z,-0.39
2023-02-25T23:38:53.915Z,-0.44
2023-02-25T23:41:20.293Z,-0.59
2023-02-25T23:43:46.659Z,-0.54
2023-02-25T23:46:13.141Z,-0.36
2023-02-25T23:48:39.581Z,-0.43
2023-02-25T23:51:07.325Z,-0.61
2023-02-25T23:53:33.815Z,-0.47
2023-02-25T23:56:08.586Z,-0.64
2023-02-25T23:58:35.413Z,-0.64
